createdAt,value
2023-05-18T00:04:45.116Z,10.53
2023-05-18T00:15:07.114Z,10.46
2023-05-18T00:25:28.669Z,10.44
2023-05-18T00:35:51.245Z,10.41
2023-05-18T00:46:12.761Z,10.37
2023-05-18T00:56:34.557Z,10.30
2023-05-18T01:06:56.870Z,10.27
2023-05-18T01:17:44.389Z,10.25
2023-05-18T01:28:10.282Z,10.19
2023-05-18T01:38:32.175Z,10.17
2023-05-18T01:48:56.711Z,10.15
2023-05-18T01:59:18.484Z,10.07
2023-05-18T02:09:40.043Z,10.03
2023-05-18T02:20:02.509Z,10.01
2023-05-18T02:30:23.962Z,9.98
2023-05-18T02:40:45.633Z,9.95
2023-05-18T02:51:07.233Z,9.89
2023-05-18T03:01:28.904Z,9.85
2023-05-18T03:11:52.174Z,9.74
2023-05-18T03:22:14.111Z,9.65
2023-05-18T03:32:37.401Z,9.59
2023-05-18T03:42:59.303Z,9.53
2023-05-18T03:53:21.757Z,9.47
2023-05-18T04:03:44.093Z,9.42
2023-05-18T04:14:06.160Z,9.32
2023-05-18T04:24:27.798Z,9.32
2023-05-18T04:34:49.802Z,9.24
2023-05-18T04:45:15.962Z,9.25
2023-05-18T04:55:38.491Z,9.23
2023-05-18T05:06:03.593Z,9.23
2023-05-18T05:16:25.275Z,9.24
2023-05-18T05:26:46.675Z,9.27
2023-05-18T05:37:08.097Z,9.28
2023-05-18T05:47:29.693Z,9.31
2023-05-18T05:57:51.938Z,9.35
2023-05-18T06:08:13.977Z,9.42
2023-05-18T06:18:36.797Z,9.51
2023-05-18T06:29:01.260Z,9.62
2023-05-18T06:39:26.926Z,9.75
2023-05-18T06:49:48.472Z,9.90
2023-05-18T07:00:13.540Z,10.04
2023-05-18T07:10:36.036Z,10.19
2023-05-18T07:20:57.501Z,10.34
2023-05-18T07:31:21.590Z,10.49
2023-05-18T07:41:43.343Z,10.62
2023-05-18T07:52:07.784Z,10.76
2023-05-18T08:02:31.411Z,10.90
2023-05-18T08:12:54.202Z,11.04
2023-05-18T08:23:16.137Z,11.19
2023-05-18T08:33:37.340Z,11.33
2023-05-18T08:44:05.172Z,11.48
2023-05-18T08:54:27.549Z,11.59
2023-05-18T09:04:48.979Z,11.71
2023-05-18T09:15:10.990Z,11.82
2023-05-18T09:25:35.363Z,11.94
2023-05-18T09:35:57.589Z,12.08
2023-05-18T09:46:21.246Z,12.22
2023-05-18T09:56:55.346Z,12.31
2023-05-18T10:07:28.526Z,12.39
2023-05-18T10:17:52.476Z,12.53
2023-05-18T10:28:20.457Z,12.63
2023-05-18T10:38:45.567Z,12.71
2023-05-18T10:49:13.431Z,12.84
2023-05-18T10:59:35.661Z,13.04
2023-05-18T11:09:56.959Z,13.24
2023-05-18T11:20:18.463Z,13.38
2023-05-18T11:30:40.663Z,13.39
2023-05-18T11:41:02.029Z,13.36
2023-05-18T11:51:25.535Z,13.32
2023-05-18T12:01:46.811Z,13.33
2023-05-18T12:12:08.625Z,13.32
2023-05-18T12:22:30.139Z,13.39
2023-05-18T12:32:56.304Z,13.47
2023-05-18T12:43:18.198Z,13.54
2023-05-18T12:53:43.238Z,13.62
2023-05-18T13:04:11.272Z,13.64
2023-05-18T13:14:38.664Z,13.65
2023-05-18T13:25:00.043Z,13.68
2023-05-18T13:35:21.913Z,13.68
2023-05-18T13:45:43.702Z,13.63
2023-05-18T13:56:05.553Z,13.61
2023-05-18T14:06:27.879Z,13.63
2023-05-18T14:16:49.109Z,13.65
2023-05-18T14:27:10.789Z,13.64
2023-05-18T14:37:33.316Z,13.61
2023-05-18T14:47:54.455Z,13.60
2023-05-18T14:58:17.260Z,13.57
2023-05-18T15:08:38.616Z,13.54
2023-05-18T15:19:00.045Z,13.53
2023-05-18T15:29:21.872Z,13.53
2023-05-18T15:39:43.294Z,13.52
2023-05-18T15:50:05.156Z,13.51
2023-05-18T16:00:26.650Z,13.43
2023-05-18T16:10:48.089Z,13.35
2023-05-18T16:21:09.643Z,13.29
2023-05-18T16:31:31.382Z,13.22
2023-05-18T16:41:52.933Z,13.18
2023-05-18T16:52:16.193Z,13.12
2023-05-18T17:02:38.399Z,13.05
2023-05-18T17:13:00.177Z,13.02
2023-05-18T17:23:21.645Z,12.96
2023-05-18T17:33:47.456Z,12.91
2023-05-18T17:44:08.630Z,12.86
2023-05-18T17:54:30.288Z,12.80
2023-05-18T18:04:51.689Z,12.75
2023-05-18T18:15:13.455Z,12.70
2023-05-18T18:25:35.157Z,12.65
2023-05-18T18:35:57.799Z,12.59
2023-05-18T18:46:19.131Z,12.53
2023-05-18T18:56:40.564Z,12.47
2023-05-18T19:07:03.333Z,12.38
2023-05-18T19:17:26.825Z,12.33
2023-05-18T19:27:48.678Z,12.25
2023-05-18T19:38:09.827Z,12.19
2023-05-18T19:48:31.883Z,12.13
2023-05-18T19:58:53.335Z,12.06
2023-05-18T20:09:14.934Z,11.99
2023-05-18T20:19:37.953Z,11.94
2023-05-18T20:30:00.854Z,11.87
2023-05-18T20:40:23.402Z,11.79
2023-05-18T20:50:44.987Z,11.74
2023-05-18T21:01:07.287Z,11.69
2023-05-18T21:11:28.775Z,11.64
2023-05-18T21:21:50.046Z,11.61
2023-05-18T21:32:11.522Z,11.57
2023-05-18T21:42:33.518Z,11.53
2023-05-18T21:52:54.910Z,11.46
2023-05-18T22:03:15.764Z,11.41
2023-05-18T22:13:37.242Z,11.37
2023-05-18T22:23:58.564Z,11.32
2023-05-18T22:34:19.953Z,11.26
2023-05-18T22:44:41.355Z,11.22
2023-05-18T22:55:05.675Z,11.19
2023-05-18T23:05:27.931Z,11.15
2023-05-18T23:15:49.210Z,11.12
2023-05-18T23:26:11.002Z,11.11
2023-05-18T23:36:35.290Z,11.05
2023-05-18T23:46:57.134Z,11.03
2023-05-18T23:57:18.836Z,11.00
